createdAt,value
2019-05-10T00:01:45.134Z,99.90
2019-05-10T00:04:18.059Z,99.90
2019-05-10T00:06:51.142Z,99.90
2019-05-10T00:09:18.185Z,99.90
2019-05-10T00:12:00.079Z,99.90
2019-05-10T00:14:31.135Z,99.90
2019-05-10T00:16:58.397Z,99.90
2019-05-10T00:19:26.394Z,99.90
2019-05-10T00:21:53.897Z,99.90
2019-05-10T00:24:20.912Z,99.90
2019-05-10T00:26:48.026Z,99.90
2019-05-10T00:29:18.149Z,99.90
2019-05-10T00:31:46.730Z,99.90
2019-05-10T00:34:14.543Z,99.90
2019-05-10T00:36:42.235Z,99.90
2019-05-10T00:39:10.046Z,99.90
2019-05-10T00:41:37.022Z,99.90
2019-05-10T00:44:03.864Z,99.90
2019-05-10T00:46:31.490Z,99.90
2019-05-10T00:48:58.609Z,99.90
2019-05-10T00:51:25.454Z,99.90
2019-05-10T00:53:52.317Z,99.90
2019-05-10T00:56:19.831Z,99.90
2019-05-10T00:58:46.864Z,99.90
2019-05-10T01:01:13.777Z,99.90
2019-05-10T01:03:41.526Z,99.90
2019-05-10T01:06:08.463Z,99.90
2019-05-10T01:08:36.406Z,99.90
2019-05-10T01:11:04.112Z,99.90
2019-05-10T01:13:31.497Z,99.90
2019-05-10T01:15:59.001Z,99.90
2019-05-10T01:18:26.170Z,99.90
2019-05-10T01:20:53.719Z,99.90
2019-05-10T01:23:21.280Z,99.90
2019-05-10T01:25:48.215Z,99.90
2019-05-10T01:28:15.062Z,99.90
2019-05-10T01:30:41.813Z,99.90
2019-05-10T01:33:08.597Z,99.90
2019-05-10T01:35:35.334Z,99.90
2019-05-10T01:38:02.455Z,99.90
2019-05-10T01:43:09.390Z,99.90
2019-05-10T01:45:36.147Z,99.90
2019-05-10T01:48:02.894Z,99.90
2019-05-10T01:50:29.739Z,99.90
2019-05-10T01:52:56.480Z,99.90
2019-05-10T01:55:23.205Z,99.90
2019-05-10T01:57:50.011Z,99.90
2019-05-10T02:00:16.760Z,99.90
2019-05-10T02:02:44.266Z,99.90
2019-05-10T02:05:11.182Z,99.90
2019-05-10T02:07:38.678Z,99.90
2019-05-10T02:10:05.536Z,99.90
2019-05-10T02:12:32.398Z,99.90
2019-05-10T02:14:59.274Z,99.90
2019-05-10T02:17:26.716Z,99.90
2019-05-10T02:19:54.256Z,99.90
2019-05-10T02:22:21.120Z,99.90
2019-05-10T02:24:47.900Z,99.90
2019-05-10T02:27:15.406Z,99.90
2019-05-10T02:29:43.025Z,99.90
2019-05-10T02:32:09.803Z,99.90
2019-05-10T02:34:36.614Z,99.90
2019-05-10T02:37:03.390Z,99.90
2019-05-10T02:39:30.139Z,99.90
2019-05-10T02:41:56.934Z,99.90
2019-05-10T02:44:23.695Z,99.90
2019-05-10T02:46:50.530Z,99.90
2019-05-10T02:49:17.263Z,99.90
2019-05-10T02:51:43.982Z,99.90
2019-05-10T02:54:11.810Z,99.90
2019-05-10T02:56:38.609Z,99.90
2019-05-10T02:59:05.371Z,99.90
2019-05-10T03:01:32.241Z,99.90
2019-05-10T03:03:59.744Z,99.90
2019-05-10T03:06:26.511Z,99.90
2019-05-10T03:08:54.093Z,99.90
2019-05-10T03:11:20.910Z,99.90
2019-05-10T03:13:47.751Z,99.90
2019-05-10T03:16:14.592Z,99.90
2019-05-10T03:18:41.420Z,99.90
2019-05-10T03:21:08.289Z,99.90
2019-05-10T03:23:35.121Z,99.90
2019-05-10T03:26:01.967Z,99.90
2019-05-10T03:28:28.806Z,99.90
2019-05-10T03:30:55.649Z,99.90
2019-05-10T03:33:22.510Z,99.90
2019-05-10T03:35:49.435Z,99.90
2019-05-10T03:38:16.177Z,99.90
2019-05-10T03:40:43.023Z,99.90
2019-05-10T03:43:09.865Z,99.90
2019-05-10T03:45:36.603Z,99.90
2019-05-10T03:48:03.557Z,99.90
2019-05-10T03:50:30.495Z,99.90
2019-05-10T03:52:57.337Z,99.90
2019-05-10T03:55:24.179Z,99.90
2019-05-10T03:57:51.021Z,99.90
2019-05-10T04:00:17.863Z,99.90
2019-05-10T04:02:44.705Z,99.90
2019-05-10T04:05:11.549Z,99.90
2019-05-10T04:07:38.392Z,99.90
2019-05-10T04:10:05.234Z,99.90
2019-05-10T04:12:31.977Z,99.90
2019-05-10T04:14:58.924Z,99.90
2019-05-10T04:17:25.767Z,99.90
2019-05-10T04:19:52.608Z,99.90
2019-05-10T04:22:19.448Z,99.90
2019-05-10T04:24:46.294Z,99.90
2019-05-10T04:27:30.731Z,99.90
2019-05-10T04:29:40.103Z,99.90
2019-05-10T04:32:07.127Z,99.90
2019-05-10T04:34:33.874Z,99.90
2019-05-10T04:37:00.708Z,99.90
2019-05-10T04:39:28.272Z,99.90
2019-05-10T04:41:55.020Z,99.90
2019-05-10T04:44:21.981Z,99.90
2019-05-10T04:46:48.803Z,99.90
2019-05-10T04:49:15.744Z,99.90
2019-05-10T04:51:42.485Z,99.90
2019-05-10T04:54:09.329Z,99.90
2019-05-10T04:56:36.889Z,99.90
2019-05-10T04:59:03.728Z,99.90
2019-05-10T05:01:30.475Z,99.90
2019-05-10T05:03:57.209Z,99.90
2019-05-10T05:06:24.057Z,99.90
2019-05-10T05:08:50.792Z,99.90
2019-05-10T05:11:17.738Z,99.90
2019-05-10T05:13:44.582Z,99.90
2019-05-10T05:16:11.325Z,99.90
2019-05-10T05:18:38.267Z,99.90
2019-05-10T05:21:05.111Z,99.90
2019-05-10T05:23:31.861Z,99.90
2019-05-10T05:25:59.519Z,99.90
2019-05-10T05:28:26.356Z,99.90
2019-05-10T05:30:53.194Z,99.90
2019-05-10T05:33:19.943Z,99.90
2019-05-10T05:35:46.680Z,99.90
2019-05-10T05:38:13.523Z,99.90
2019-05-10T05:40:40.570Z,99.90
2019-05-10T05:43:08.721Z,99.90
2019-05-10T05:45:36.080Z,99.90
2019-05-10T05:48:03.865Z,99.90
2019-05-10T05:50:30.605Z,99.90
2019-05-10T05:52:57.548Z,99.90
2019-05-10T05:55:30.577Z,99.90
2019-05-10T05:57:53.966Z,99.90
2019-05-10T06:00:23.608Z,99.90
2019-05-10T06:02:51.023Z,99.90
2019-05-10T06:05:32.908Z,99.90
2019-05-10T06:07:44.653Z,99.90
2019-05-10T06:10:17.034Z,99.90
2019-05-10T06:12:38.332Z,99.90
2019-05-10T06:15:05.165Z,99.90
2019-05-10T06:17:32.018Z,99.90
2019-05-10T06:20:00.860Z,99.90
2019-05-10T06:22:25.775Z,99.90
2019-05-10T06:24:53.895Z,99.90
2019-05-10T06:27:19.494Z,99.90
2019-05-10T06:29:46.334Z,99.90
2019-05-10T06:32:13.365Z,99.90
2019-05-10T06:34:40.252Z,99.90
2019-05-10T06:37:06.979Z,99.90
2019-05-10T06:39:33.910Z,99.90
2019-05-10T06:42:00.651Z,94.90
2019-05-10T06:44:31.129Z,77.10
2019-05-10T06:47:11.333Z,74.40
2019-05-10T06:49:40.857Z,69.80
2019-05-10T06:52:02.972Z,69.40
2019-05-10T06:54:29.818Z,70.00
2019-05-10T06:56:56.556Z,69.10
2019-05-10T06:59:24.907Z,68.60
2019-05-10T07:01:52.031Z,68.60
2019-05-10T07:04:16.989Z,66.60
2019-05-10T07:06:43.931Z,71.00
2019-05-10T07:09:10.873Z,71.60
2019-05-10T07:11:37.717Z,73.00
2019-05-10T07:14:04.663Z,69.30
2019-05-10T07:16:31.402Z,70.70
2019-05-10T07:19:00.629Z,68.90
2019-05-10T07:21:25.396Z,63.70
2019-05-10T07:23:52.346Z,65.50
2019-05-10T07:26:24.339Z,61.30
2019-05-10T07:28:46.228Z,63.20
2019-05-10T07:31:13.072Z,61.70
2019-05-10T07:33:40.208Z,59.10
2019-05-10T07:36:14.503Z,58.50
2019-05-10T07:38:34.009Z,57.90
2019-05-10T07:41:01.570Z,59.10
2019-05-10T07:43:28.953Z,59.20
2019-05-10T07:45:58.680Z,60.10
2019-05-10T07:48:23.271Z,57.10
2019-05-10T07:50:51.973Z,59.10
2019-05-10T07:53:23.111Z,61.90
2019-05-10T07:55:45.497Z,61.90
2019-05-10T07:58:12.334Z,63.20
2019-05-10T08:00:44.636Z,65.00
2019-05-10T08:03:15.185Z,64.20
2019-05-10T08:05:33.073Z,59.90
2019-05-10T08:07:59.913Z,58.50
2019-05-10T08:10:39.116Z,60.40
2019-05-10T08:13:08.470Z,61.80
2019-05-10T08:15:34.899Z,61.10
2019-05-10T08:18:01.133Z,61.30
2019-05-10T08:20:41.467Z,61.40
2019-05-10T08:22:54.794Z,60.60
2019-05-10T08:25:23.016Z,62.00
2019-05-10T08:27:51.204Z,62.60
2019-05-10T08:30:25.674Z,66.60
2019-05-10T08:32:42.683Z,66.80
2019-05-10T08:35:16.362Z,65.30
2019-05-10T08:37:38.042Z,62.40
2019-05-10T08:40:03.358Z,65.30
2019-05-10T08:42:43.875Z,65.40
2019-05-10T08:45:03.731Z,64.70
2019-05-10T08:47:27.654Z,65.30
2019-05-10T08:50:08.132Z,66.00
2019-05-10T08:52:27.295Z,67.50
2019-05-10T08:54:46.620Z,67.40
2019-05-10T08:57:18.535Z,69.60
2019-05-10T08:59:42.632Z,70.50
2019-05-10T09:02:07.354Z,72.30
2019-05-10T09:04:45.351Z,71.50
2019-05-10T09:07:02.860Z,71.50
2019-05-10T09:09:33.749Z,73.20
2019-05-10T09:11:57.736Z,72.60
2019-05-10T09:14:24.136Z,75.60
2019-05-10T09:16:57.541Z,73.50
2019-05-10T09:19:18.823Z,73.20
2019-05-10T09:21:49.623Z,74.50
2019-05-10T09:24:12.831Z,74.40
2019-05-10T09:26:38.134Z,74.50
2019-05-10T09:29:04.979Z,74.90
2019-05-10T09:31:32.646Z,77.40
2019-05-10T09:33:58.694Z,76.90
2019-05-10T09:36:31.223Z,79.20
2019-05-10T09:38:52.896Z,76.90
2019-05-10T09:41:19.293Z,78.10
2019-05-10T09:43:48.972Z,80.80
2019-05-10T09:46:14.196Z,80.80
2019-05-10T09:48:44.666Z,77.80
2019-05-10T09:51:08.512Z,80.80
2019-05-10T09:53:38.025Z,80.90
2019-05-10T09:56:03.089Z,80.00
2019-05-10T09:58:29.039Z,80.20
2019-05-10T10:01:12.824Z,78.00
2019-05-10T10:03:22.828Z,80.30
2019-05-10T10:05:54.976Z,82.30
2019-05-10T10:08:17.619Z,81.50
2019-05-10T10:10:43.561Z,82.60
2019-05-10T10:13:13.457Z,82.30
2019-05-10T10:15:37.440Z,85.60
2019-05-10T10:18:04.303Z,84.40
2019-05-10T10:20:36.007Z,83.40
2019-05-10T10:22:58.184Z,83.90
2019-05-10T10:25:27.790Z,85.80
2019-05-10T10:27:51.870Z,85.90
2019-05-10T10:30:21.578Z,87.90
2019-05-10T10:32:47.367Z,84.60
2019-05-10T10:35:13.320Z,85.20
2019-05-10T10:37:39.446Z,88.60
2019-05-10T10:40:08.730Z,90.30
2019-05-10T10:42:33.129Z,91.00
2019-05-10T10:44:59.980Z,90.60
2019-05-10T10:47:30.447Z,90.20
2019-05-10T10:49:53.658Z,89.80
2019-05-10T10:52:20.416Z,90.60
2019-05-10T10:54:47.924Z,91.50
2019-05-10T10:57:14.190Z,92.00
2019-05-10T10:59:41.030Z,92.50
2019-05-10T11:02:28.993Z,93.90
2019-05-10T11:04:40.236Z,92.40
2019-05-10T11:07:10.553Z,93.60
2019-05-10T11:09:31.001Z,94.00
2019-05-10T11:11:55.451Z,94.10
2019-05-10T11:14:22.189Z,94.70
2019-05-10T11:16:52.841Z,93.70
2019-05-10T11:19:15.957Z,94.80
2019-05-10T11:21:42.823Z,94.60
2019-05-10T11:24:17.729Z,95.40
2019-05-10T11:26:37.094Z,97.60
2019-05-10T11:29:03.658Z,99.90
2019-05-10T11:31:31.151Z,99.90
2019-05-10T11:33:59.215Z,99.90
2019-05-10T11:36:24.197Z,99.90
2019-05-10T11:38:53.612Z,99.90
2019-05-10T11:41:22.119Z,99.90
2019-05-10T11:43:44.817Z,99.90
2019-05-10T11:46:12.376Z,99.90
2019-05-10T11:48:41.890Z,99.90
2019-05-10T11:51:11.276Z,99.90
2019-05-10T11:53:32.801Z,99.90
2019-05-10T11:56:01.864Z,99.90
2019-05-10T11:58:26.486Z,99.90
2019-05-10T12:00:59.288Z,99.90
2019-05-10T12:03:23.454Z,99.90
2019-05-10T12:05:53.235Z,99.90
2019-05-10T12:08:14.677Z,99.90
2019-05-10T12:10:52.805Z,99.90
2019-05-10T12:13:19.125Z,99.90
2019-05-10T12:15:36.742Z,99.90
2019-05-10T12:18:04.730Z,99.90
2019-05-10T12:20:41.158Z,99.90
2019-05-10T12:22:57.270Z,99.90
2019-05-10T12:25:42.080Z,99.90
2019-05-10T12:27:52.421Z,99.90
2019-05-10T12:30:17.902Z,99.90
2019-05-10T12:32:55.634Z,99.90
2019-05-10T12:35:11.793Z,99.90
2019-05-10T12:37:39.460Z,99.90
2019-05-10T12:40:10.076Z,99.90
2019-05-10T12:42:32.321Z,99.90
2019-05-10T12:45:01.155Z,99.90
2019-05-10T12:47:26.110Z,99.90
2019-05-10T12:49:53.902Z,99.90
2019-05-10T12:52:22.078Z,99.90
2019-05-10T12:54:46.535Z,99.90
2019-05-10T12:57:13.383Z,99.90
2019-05-10T12:59:40.222Z,99.90
2019-05-10T13:02:11.014Z,99.90
2019-05-10T13:04:40.483Z,99.90
2019-05-10T13:07:00.854Z,99.90
2019-05-10T13:09:37.741Z,99.90
2019-05-10T13:12:03.876Z,99.90
2019-05-10T13:14:31.624Z,99.90
2019-05-10T13:16:58.364Z,99.90
2019-05-10T13:19:25.205Z,99.90
2019-05-10T13:21:53.829Z,99.90
2019-05-10T13:24:18.894Z,99.90
2019-05-10T13:26:45.840Z,99.90
2019-05-10T13:29:12.798Z,99.90
2019-05-10T13:31:42.616Z,99.90
2019-05-10T13:34:07.285Z,99.90
2019-05-10T13:36:36.980Z,99.90
2019-05-10T13:39:00.987Z,99.90
2019-05-10T13:41:27.920Z,99.90
2019-05-10T13:43:58.858Z,99.90
2019-05-10T13:46:21.557Z,99.90
2019-05-10T13:48:49.894Z,99.90
2019-05-10T13:51:17.747Z,99.90
2019-05-10T13:53:44.897Z,99.90
2019-05-10T13:56:14.148Z,99.90
2019-05-10T13:58:41.186Z,99.90
2019-05-10T14:01:13.031Z,99.90
2019-05-10T14:03:43.658Z,99.90
2019-05-10T14:06:02.269Z,99.90
2019-05-10T14:08:29.231Z,99.90
2019-05-10T14:11:01.523Z,99.90
2019-05-10T14:13:23.020Z,99.90
2019-05-10T14:15:50.478Z,99.90
2019-05-10T14:18:17.204Z,99.90
2019-05-10T14:20:44.265Z,99.90
2019-05-10T14:23:11.026Z,99.90
2019-05-10T14:25:38.992Z,99.90
2019-05-10T14:28:09.763Z,99.90
2019-05-10T14:30:32.252Z,99.90
2019-05-10T14:32:59.099Z,99.90
2019-05-10T14:35:25.936Z,99.90
2019-05-10T14:37:52.675Z,99.90
2019-05-10T14:40:27.763Z,99.90
2019-05-10T14:42:46.567Z,99.90
2019-05-10T14:45:13.512Z,99.90
2019-05-10T14:47:48.448Z,99.90
2019-05-10T14:50:08.320Z,99.90
2019-05-10T14:52:35.064Z,99.90
2019-05-10T14:55:02.124Z,99.90
2019-05-10T14:57:28.959Z,99.90
2019-05-10T14:59:55.798Z,99.90
2019-05-10T15:02:24.922Z,99.90
2019-05-10T15:04:49.789Z,99.90
2019-05-10T15:07:16.756Z,99.90
2019-05-10T15:09:43.581Z,99.90
2019-05-10T15:12:15.482Z,99.90
2019-05-10T15:14:37.497Z,99.90
2019-05-10T15:17:04.311Z,99.90
2019-05-10T15:19:31.697Z,99.90
2019-05-10T15:21:57.895Z,99.90
2019-05-10T15:24:24.944Z,99.90
2019-05-10T15:26:51.787Z,99.90
2019-05-10T15:29:22.372Z,99.90
2019-05-10T15:31:45.674Z,99.90
2019-05-10T15:34:12.418Z,99.90
2019-05-10T15:36:40.179Z,99.90
2019-05-10T15:39:07.128Z,99.90
2019-05-10T15:41:33.969Z,99.90
2019-05-10T15:44:00.814Z,99.90
2019-05-10T15:46:35.298Z,99.90
2019-05-10T15:48:54.394Z,99.90
2019-05-10T15:51:35.218Z,99.90
2019-05-10T15:53:48.907Z,99.90
2019-05-10T15:56:15.950Z,99.90
2019-05-10T15:58:42.889Z,99.90
2019-05-10T16:01:09.633Z,99.90
2019-05-10T16:03:36.580Z,99.90
2019-05-10T16:06:04.859Z,99.90
2019-05-10T16:08:32.045Z,99.90
2019-05-10T16:10:58.750Z,99.90
2019-05-10T16:13:25.598Z,99.90
2019-05-10T16:15:57.710Z,99.90
2019-05-10T16:18:19.274Z,99.90
2019-05-10T16:20:46.645Z,99.90
2019-05-10T16:23:14.190Z,99.90
2019-05-10T16:25:47.558Z,99.90
2019-05-10T16:28:07.874Z,99.90
2019-05-10T16:30:36.579Z,99.90
2019-05-10T16:33:01.666Z,99.90
2019-05-10T16:35:38.484Z,99.90
2019-05-10T16:37:55.555Z,99.90
2019-05-10T16:40:22.503Z,99.90
2019-05-10T16:42:49.651Z,99.90
2019-05-10T16:45:16.494Z,99.90
2019-05-10T16:47:43.438Z,99.90
2019-05-10T16:50:10.486Z,99.90
2019-05-10T16:52:37.533Z,99.90
2019-05-10T16:55:05.421Z,99.90
2019-05-10T16:57:37.335Z,99.90
2019-05-10T17:00:02.172Z,99.90
2019-05-10T17:02:25.520Z,99.90
2019-05-10T17:04:52.260Z,99.90
2019-05-10T17:07:20.611Z,99.90
2019-05-10T17:09:49.556Z,99.90
2019-05-10T17:12:12.831Z,99.90
2019-05-10T17:14:39.731Z,99.90
2019-05-10T17:17:06.574Z,99.90
2019-05-10T17:19:34.028Z,99.90
2019-05-10T17:22:00.261Z,99.90
2019-05-10T17:24:27.005Z,99.90
2019-05-10T17:26:53.788Z,99.90
2019-05-10T17:29:21.302Z,99.90
2019-05-10T17:31:48.247Z,99.90
2019-05-10T17:34:22.128Z,99.90
2019-05-10T17:36:41.983Z,99.90
2019-05-10T17:39:09.423Z,99.90
2019-05-10T17:41:36.934Z,99.90
2019-05-10T17:44:03.784Z,99.90
2019-05-10T17:46:30.532Z,99.90
2019-05-10T17:48:57.235Z,99.90
2019-05-10T17:51:24.704Z,99.90
2019-05-10T17:53:54.927Z,99.90
2019-05-10T17:56:18.325Z,99.90
2019-05-10T17:58:45.779Z,99.90
2019-05-10T18:01:12.499Z,99.90
2019-05-10T18:03:39.258Z,99.90
2019-05-10T18:06:06.132Z,99.90
2019-05-10T18:08:33.746Z,99.90
2019-05-10T18:11:04.352Z,99.90
2019-05-10T18:13:30.627Z,99.90
2019-05-10T18:15:57.395Z,99.90
2019-05-10T18:18:24.588Z,99.90
2019-05-10T18:20:51.483Z,99.90
2019-05-10T18:23:21.052Z,99.90
2019-05-10T18:25:46.219Z,99.90
2019-05-10T18:28:16.590Z,99.90
2019-05-10T18:30:41.755Z,99.90
2019-05-10T18:33:12.249Z,99.90
2019-05-10T18:35:35.838Z,99.90
2019-05-10T18:38:03.868Z,99.90
2019-05-10T18:40:32.180Z,99.90
2019-05-10T18:43:03.656Z,99.90
2019-05-10T18:45:28.563Z,99.90
2019-05-10T18:47:52.107Z,99.90
2019-05-10T18:50:19.039Z,99.90
2019-05-10T18:52:46.742Z,99.90
2019-05-10T18:55:13.701Z,99.90
2019-05-10T18:57:45.413Z,99.90
2019-05-10T19:00:08.735Z,99.90
2019-05-10T19:02:35.772Z,99.90
2019-05-10T19:05:02.923Z,99.90
2019-05-10T19:07:30.786Z,99.90
2019-05-10T19:09:58.961Z,99.90
2019-05-10T19:12:26.294Z,99.90
2019-05-10T19:14:53.269Z,99.90
2019-05-10T19:17:20.410Z,99.90
2019-05-10T19:19:47.358Z,99.90
2019-05-10T19:22:15.225Z,99.90
2019-05-10T19:24:42.262Z,99.90
2019-05-10T19:27:10.240Z,99.90
2019-05-10T19:29:38.638Z,99.90
2019-05-10T19:32:04.051Z,99.90
2019-05-10T19:34:30.967Z,99.90
2019-05-10T19:36:58.247Z,99.90
2019-05-10T19:39:25.855Z,99.90
2019-05-10T19:42:02.922Z,99.90
2019-05-10T19:44:19.593Z,99.90
2019-05-10T19:46:46.501Z,99.90
2019-05-10T19:49:15.595Z,99.90
2019-05-10T19:51:42.017Z,99.90
2019-05-10T19:54:08.480Z,99.90
2019-05-10T19:56:37.096Z,99.90
2019-05-10T19:59:05.396Z,99.90
2019-05-10T20:01:29.931Z,99.90
2019-05-10T20:03:58.311Z,99.90
2019-05-10T20:06:26.708Z,99.90
2019-05-10T20:08:54.045Z,99.90
2019-05-10T20:11:20.887Z,99.90
2019-05-10T20:13:48.450Z,99.90
2019-05-10T20:16:15.595Z,99.90
2019-05-10T20:18:42.546Z,99.90
2019-05-10T20:21:09.589Z,99.90
2019-05-10T20:23:36.844Z,99.90
2019-05-10T20:26:04.300Z,99.90
2019-05-10T20:28:32.579Z,99.90
2019-05-10T20:31:00.549Z,99.90
2019-05-10T20:33:27.398Z,99.90
2019-05-10T20:35:54.135Z,99.90
2019-05-10T20:38:20.971Z,99.90
2019-05-10T20:40:47.712Z,99.90
2019-05-10T20:43:14.660Z,99.90
2019-05-10T20:45:41.603Z,99.90
2019-05-10T20:48:08.461Z,99.90
2019-05-10T20:50:35.289Z,99.90
2019-05-10T20:53:02.027Z,99.90
2019-05-10T20:58:01.651Z,99.90
2019-05-10T21:00:28.530Z,99.90
2019-05-10T21:02:56.057Z,99.90
2019-05-10T21:05:22.897Z,99.90
2019-05-10T21:07:49.743Z,99.90
2019-05-10T21:10:17.312Z,99.90
2019-05-10T21:12:45.064Z,99.90
2019-05-10T21:15:12.626Z,99.90
2019-05-10T21:17:40.598Z,99.90
2019-05-10T21:20:07.951Z,99.90
2019-05-10T21:22:34.791Z,99.90
2019-05-10T21:25:02.150Z,99.90
2019-05-10T21:27:29.013Z,99.90
2019-05-10T21:29:57.063Z,99.90
2019-05-10T21:32:24.828Z,99.90
2019-05-10T21:34:51.772Z,99.90
2019-05-10T21:37:18.619Z,99.90
2019-05-10T21:39:45.458Z,99.90
2019-05-10T21:42:12.405Z,99.90
2019-05-10T21:44:39.249Z,99.90
2019-05-10T21:47:06.086Z,99.90
2019-05-10T21:49:32.828Z,99.90
2019-05-10T21:51:59.776Z,99.90
2019-05-10T21:54:26.720Z,99.90
2019-05-10T21:56:54.287Z,99.90
2019-05-10T21:59:22.048Z,99.90
2019-05-10T22:01:49.388Z,99.90
2019-05-10T22:04:16.137Z,99.90
2019-05-10T22:06:42.981Z,99.90
2019-05-10T22:09:09.941Z,99.90
2019-05-10T22:11:38.196Z,99.90
2019-05-10T22:14:05.575Z,99.90
2019-05-10T22:16:32.613Z,99.90
2019-05-10T22:19:14.298Z,99.90
2019-05-10T22:21:41.109Z,99.90
2019-05-10T22:24:07.911Z,99.90
2019-05-10T22:26:34.666Z,99.90
2019-05-10T22:29:01.418Z,99.90
2019-05-10T22:31:28.194Z,99.90
2019-05-10T22:33:55.814Z,99.90
2019-05-10T22:36:23.425Z,99.90
2019-05-10T22:39:05.969Z,99.90
2019-05-10T22:41:18.637Z,99.90
2019-05-10T22:43:45.732Z,99.90
2019-05-10T22:46:13.274Z,99.90
2019-05-10T22:48:40.035Z,99.90
2019-05-10T22:51:06.893Z,99.90
2019-05-10T22:53:33.685Z,99.90
2019-05-10T22:56:00.709Z,99.90
2019-05-10T22:58:27.540Z,99.90
2019-05-10T23:00:55.516Z,99.90
2019-05-10T23:03:24.614Z,99.90
2019-05-10T23:05:49.495Z,99.90
2019-05-10T23:08:16.409Z,99.90
2019-05-10T23:10:44.452Z,99.90
2019-05-10T23:13:13.035Z,99.90
2019-05-10T23:15:40.885Z,99.90
2019-05-10T23:18:08.668Z,99.90
2019-05-10T23:20:37.862Z,99.90
2019-05-10T23:23:08.138Z,99.90
2019-05-10T23:25:35.231Z,99.90
2019-05-10T23:28:01.985Z,99.90
2019-05-10T23:30:28.835Z,99.90
2019-05-10T23:32:56.433Z,99.90
2019-05-10T23:35:24.583Z,99.90
2019-05-10T23:37:52.713Z,99.90
2019-05-10T23:40:19.452Z,99.90
2019-05-10T23:42:46.266Z,99.90
2019-05-10T23:45:13.323Z,99.90
2019-05-10T23:47:40.188Z,99.90
2019-05-10T23:50:07.097Z,99.90
2019-05-10T23:52:33.892Z,99.90
2019-05-10T23:55:00.639Z,99.90
2019-05-10T23:57:28.188Z,99.90
2019-05-10T23:59:55.102Z,99.90
